createdAt,value
2023-04-18T00:02:04.678Z,13.20
2023-04-18T00:05:08.010Z,13.09
2023-04-18T00:08:10.848Z,13.14
2023-04-18T00:11:13.600Z,12.96
2023-04-18T00:14:16.150Z,13.01
2023-04-18T00:17:20.422Z,13.00
2023-04-18T00:20:26.810Z,12.96
2023-04-18T00:23:30.247Z,12.83
2023-04-18T00:26:32.626Z,12.95
2023-04-18T00:29:35.446Z,12.93
2023-04-18T00:32:38.605Z,12.93
2023-04-18T00:35:41.319Z,12.91
2023-04-18T00:38:43.706Z,12.87
2023-04-18T00:41:46.668Z,12.90
2023-04-18T00:44:49.181Z,12.83
2023-04-18T00:47:52.174Z,12.93
2023-04-18T00:50:55.307Z,12.85
2023-04-18T00:53:58.746Z,12.96
2023-04-18T00:57:02.256Z,12.88
2023-04-18T01:00:10.345Z,12.88
2023-04-18T01:03:14.492Z,12.79
2023-04-18T01:06:17.789Z,12.78
2023-04-18T01:09:21.187Z,12.87
2023-04-18T01:12:23.948Z,12.89
2023-04-18T01:15:26.333Z,12.92
2023-04-18T01:18:31.471Z,12.92
2023-04-18T01:21:36.179Z,12.93
2023-04-18T01:24:39.245Z,12.89
2023-04-18T01:27:41.794Z,12.86
2023-04-18T01:30:44.452Z,12.84
2023-04-18T01:33:46.828Z,12.83
2023-04-18T01:36:51.369Z,12.78
2023-04-18T01:39:53.888Z,12.66
2023-04-18T01:42:56.618Z,12.67
2023-04-18T01:45:58.925Z,12.80
2023-04-18T01:49:01.665Z,12.77
2023-04-18T01:52:04.065Z,12.78
2023-04-18T01:55:06.948Z,12.75
2023-04-18T01:58:10.812Z,12.74
2023-04-18T02:01:13.758Z,12.75
2023-04-18T02:04:16.640Z,12.74
2023-04-18T02:07:21.765Z,12.74
2023-04-18T02:10:24.578Z,12.74
2023-04-18T02:13:27.231Z,12.73
2023-04-18T02:16:29.869Z,12.71
2023-04-18T02:19:32.612Z,12.74
2023-04-18T02:22:37.596Z,12.70
2023-04-18T02:25:40.384Z,12.64
2023-04-18T02:28:42.895Z,12.73
2023-04-18T02:31:45.728Z,12.63
2023-04-18T02:34:50.104Z,12.71
2023-04-18T02:37:52.889Z,12.76
2023-04-18T02:40:56.054Z,12.72
2023-04-18T02:43:59.226Z,12.64
2023-04-18T02:47:01.684Z,12.64
2023-04-18T02:50:05.744Z,12.73
2023-04-18T02:53:08.560Z,12.70
2023-04-18T02:56:17.052Z,12.67
2023-04-18T02:59:21.100Z,12.57
2023-04-18T03:02:25.091Z,12.63
2023-04-18T03:05:27.911Z,12.63
2023-04-18T03:08:31.033Z,12.48
2023-04-18T03:11:33.328Z,12.46
2023-04-18T03:14:36.128Z,12.56
2023-04-18T03:17:39.486Z,12.57
2023-04-18T03:20:42.593Z,12.57
2023-04-18T03:23:44.858Z,12.50
2023-04-18T03:26:47.992Z,12.62
2023-04-18T03:29:51.860Z,12.60
2023-04-18T03:32:56.132Z,12.60
2023-04-18T03:35:59.327Z,12.57
2023-04-18T03:39:02.012Z,12.58
2023-04-18T03:42:04.418Z,12.54
2023-04-18T03:45:07.779Z,12.39
2023-04-18T03:48:10.439Z,12.47
2023-04-18T03:51:14.527Z,12.43
2023-04-18T03:54:17.259Z,12.42
2023-04-18T03:57:20.068Z,12.33
2023-04-18T04:00:22.469Z,12.42
2023-04-18T04:03:27.984Z,12.44
2023-04-18T04:06:32.212Z,12.54
2023-04-18T04:09:36.052Z,12.53
2023-04-18T04:12:38.546Z,12.50
2023-04-18T04:15:41.881Z,12.34
2023-04-18T04:18:45.125Z,12.41
2023-04-18T04:21:48.149Z,12.39
2023-04-18T04:24:51.864Z,12.35
2023-04-18T04:27:56.683Z,12.31
2023-04-18T04:30:59.522Z,12.22
2023-04-18T04:34:03.664Z,12.28
2023-04-18T04:37:06.409Z,12.14
2023-04-18T04:40:11.138Z,12.16
2023-04-18T04:43:15.522Z,12.15
2023-04-18T04:46:19.997Z,12.14
2023-04-18T04:49:24.157Z,12.23
2023-04-18T04:52:26.737Z,12.16
2023-04-18T04:55:29.160Z,12.06
2023-04-18T04:58:32.421Z,12.16
2023-04-18T05:01:35.528Z,12.22
2023-04-18T05:04:39.287Z,12.25
2023-04-18T05:07:41.726Z,12.30
2023-04-18T05:10:45.900Z,12.37
2023-04-18T05:13:48.222Z,12.31
2023-04-18T05:16:50.931Z,12.44
2023-04-18T05:19:53.325Z,12.43
2023-04-18T05:22:56.025Z,12.29
2023-04-18T05:25:58.521Z,12.47
2023-04-18T05:29:01.526Z,12.48
2023-04-18T05:32:04.003Z,12.46
2023-04-18T05:35:07.471Z,12.51
2023-04-18T05:38:09.879Z,12.52
2023-04-18T05:41:12.541Z,12.60
2023-04-18T05:44:16.053Z,12.64
2023-04-18T05:47:18.660Z,12.71
2023-04-18T05:50:21.627Z,12.65
2023-04-18T05:53:24.325Z,12.84
2023-04-18T05:56:26.766Z,12.90
2023-04-18T05:59:29.448Z,12.99
2023-04-18T06:02:32.072Z,13.02
2023-04-18T06:05:35.066Z,13.08
2023-04-18T06:08:39.361Z,13.03
2023-04-18T06:11:42.004Z,13.04
2023-04-18T06:14:44.369Z,13.20
2023-04-18T06:17:47.048Z,13.24
2023-04-18T06:20:49.577Z,13.32
2023-04-18T06:23:52.404Z,13.23
2023-04-18T06:26:55.299Z,13.47
2023-04-18T06:29:57.967Z,13.27
2023-04-18T06:33:00.470Z,13.33
2023-04-18T06:36:04.497Z,13.37
2023-04-18T06:39:06.921Z,13.61
2023-04-18T06:42:09.743Z,13.50
2023-04-18T06:45:17.578Z,13.70
2023-04-18T06:48:20.270Z,13.83
2023-04-18T06:51:22.711Z,13.81
2023-04-18T06:54:25.524Z,14.09
2023-04-18T06:57:28.370Z,14.14
2023-04-18T07:00:31.083Z,14.17
2023-04-18T07:03:33.521Z,14.18
2023-04-18T07:06:36.717Z,14.63
2023-04-18T07:09:39.094Z,14.77
2023-04-18T07:12:41.790Z,14.77
2023-04-18T07:15:44.238Z,15.09
2023-04-18T07:18:46.885Z,15.02
2023-04-18T07:21:49.374Z,15.02
2023-04-18T07:24:52.053Z,14.64
2023-04-18T07:27:54.410Z,14.67
2023-04-18T07:30:57.212Z,14.57
2023-04-18T07:33:59.645Z,14.58
2023-04-18T07:37:02.495Z,14.69
2023-04-18T07:40:05.798Z,14.81
2023-04-18T07:43:09.566Z,14.72
2023-04-18T07:46:12.017Z,14.58
2023-04-18T07:49:15.218Z,14.63
2023-04-18T07:52:17.905Z,14.58
2023-04-18T07:55:20.632Z,14.66
2023-04-18T07:58:22.931Z,14.61
2023-04-18T08:01:27.275Z,14.40
2023-04-18T08:04:30.560Z,14.43
2023-04-18T08:07:33.228Z,14.59
2023-04-18T08:10:36.147Z,14.57
2023-04-18T08:13:38.852Z,14.66
2023-04-18T08:16:41.646Z,14.84
2023-04-18T08:19:45.607Z,14.88
2023-04-18T08:23:05.087Z,15.08
2023-04-18T08:26:10.226Z,15.18
2023-04-18T08:29:13.090Z,15.20
2023-04-18T08:32:15.622Z,15.37
2023-04-18T08:35:18.316Z,15.52
2023-04-18T08:38:20.683Z,15.92
2023-04-18T08:41:24.161Z,16.28
2023-04-18T08:44:29.839Z,16.30
2023-04-18T08:47:35.218Z,16.78
2023-04-18T08:50:37.703Z,17.27
2023-04-18T08:53:42.086Z,17.18
2023-04-18T08:56:45.320Z,17.00
2023-04-18T08:59:50.368Z,16.71
2023-04-18T09:02:59.290Z,16.68
2023-04-18T09:06:16.402Z,16.56
2023-04-18T09:09:19.706Z,16.37
2023-04-18T09:12:25.369Z,16.36
2023-04-18T09:15:29.287Z,16.24
2023-04-18T09:18:32.567Z,16.40
2023-04-18T09:21:36.135Z,16.41
2023-04-18T09:24:40.087Z,17.00
2023-04-18T09:27:42.589Z,16.98
2023-04-18T09:30:46.573Z,17.00
2023-04-18T09:33:54.549Z,16.99
2023-04-18T09:37:06.983Z,16.95
2023-04-18T09:40:19.324Z,16.93
2023-04-18T09:43:22.064Z,16.91
2023-04-18T09:46:25.359Z,17.14
2023-04-18T09:49:28.466Z,17.25
2023-04-18T09:52:36.859Z,17.68
2023-04-18T09:55:41.525Z,17.80
2023-04-18T09:58:47.114Z,17.69
2023-04-18T10:01:50.971Z,17.76
2023-04-18T10:04:54.926Z,17.70
2023-04-18T10:07:57.565Z,17.63
2023-04-18T10:11:00.466Z,17.66
2023-04-18T10:14:07.040Z,18.02
2023-04-18T10:17:11.017Z,18.11
2023-04-18T10:20:20.024Z,18.26
2023-04-18T10:23:32.135Z,18.16
2023-04-18T10:26:47.279Z,18.34
2023-04-18T10:29:50.834Z,18.31
2023-04-18T10:32:55.586Z,18.01
2023-04-18T10:36:20.542Z,18.19
2023-04-18T10:39:25.606Z,18.32
2023-04-18T10:42:46.933Z,18.40
2023-04-18T10:46:20.458Z,18.67
2023-04-18T10:49:34.028Z,18.65
2023-04-18T10:52:36.597Z,18.65
2023-04-18T10:55:44.624Z,18.53
2023-04-18T10:58:51.595Z,18.83
2023-04-18T11:02:01.354Z,19.12
2023-04-18T11:05:04.880Z,18.98
2023-04-18T11:08:23.003Z,18.85
2023-04-18T11:11:25.330Z,18.88
2023-04-18T11:14:48.901Z,18.91
2023-04-18T11:17:59.791Z,18.82
2023-04-18T11:21:03.883Z,18.95
2023-04-18T11:24:06.493Z,19.09
2023-04-18T11:27:11.048Z,18.90
2023-04-18T11:30:14.847Z,18.94
2023-04-18T11:33:17.576Z,18.81
2023-04-18T11:36:19.977Z,18.83
2023-04-18T11:39:22.897Z,18.95
2023-04-18T11:42:28.778Z,18.48
2023-04-18T11:45:31.773Z,18.52
2023-04-18T11:48:38.518Z,18.73
2023-04-18T11:51:44.772Z,18.39
2023-04-18T11:54:47.152Z,18.31
2023-04-18T11:57:51.997Z,18.17
2023-04-18T12:00:54.403Z,18.04
2023-04-18T12:04:16.732Z,18.07
2023-04-18T12:07:34.815Z,18.18
2023-04-18T12:10:38.566Z,18.21
2023-04-18T12:13:40.892Z,18.29
2023-04-18T12:16:44.399Z,18.54
2023-04-18T12:19:49.255Z,18.52
2023-04-18T12:22:54.221Z,18.71
2023-04-18T12:26:18.285Z,18.79
2023-04-18T12:29:21.036Z,19.00
2023-04-18T12:32:23.345Z,18.80
2023-04-18T12:35:26.369Z,18.79
2023-04-18T12:38:28.786Z,18.47
2023-04-18T12:41:31.553Z,18.40
2023-04-18T12:44:34.891Z,18.48
2023-04-18T12:47:42.148Z,18.51
2023-04-18T12:50:44.627Z,18.37
2023-04-18T12:53:47.377Z,18.39
2023-04-18T12:56:49.774Z,18.36
2023-04-18T12:59:52.532Z,18.53
2023-04-18T13:02:55.142Z,18.53
2023-04-18T13:05:57.922Z,18.55
2023-04-18T13:09:00.236Z,18.35
2023-04-18T13:12:03.603Z,18.45
2023-04-18T13:15:07.611Z,19.15
2023-04-18T13:18:10.257Z,19.61
2023-04-18T13:21:12.577Z,19.73
2023-04-18T13:24:15.250Z,19.83
2023-04-18T13:27:18.196Z,20.21
2023-04-18T13:30:21.160Z,19.87
2023-04-18T13:33:23.575Z,20.23
2023-04-18T13:36:27.683Z,20.32
2023-04-18T13:39:32.775Z,20.42
2023-04-18T13:42:37.094Z,19.94
2023-04-18T13:45:39.675Z,19.22
2023-04-18T13:48:42.385Z,19.48
2023-04-18T13:51:44.703Z,19.72
2023-04-18T13:54:48.293Z,19.70
2023-04-18T13:57:51.088Z,19.73
2023-04-18T14:00:54.004Z,20.05
2023-04-18T14:03:56.958Z,20.11
2023-04-18T14:06:59.380Z,20.15
2023-04-18T14:10:02.166Z,20.35
2023-04-18T14:13:04.601Z,20.12
2023-04-18T14:16:07.652Z,19.69
2023-04-18T14:19:10.090Z,19.31
2023-04-18T14:22:12.735Z,19.47
2023-04-18T14:25:17.033Z,19.58
2023-04-18T14:28:21.676Z,19.68
2023-04-18T14:31:24.229Z,19.64
2023-04-18T14:34:26.890Z,19.75
2023-04-18T14:37:29.190Z,19.82
2023-04-18T14:40:33.001Z,19.77
2023-04-18T14:43:35.494Z,19.54
2023-04-18T14:46:38.244Z,19.69
2023-04-18T14:49:40.743Z,19.76
2023-04-18T14:52:44.790Z,19.75
2023-04-18T14:55:47.113Z,19.57
2023-04-18T14:58:50.090Z,19.68
2023-04-18T15:01:52.460Z,19.55
2023-04-18T15:04:55.487Z,19.69
2023-04-18T15:07:58.125Z,19.48
2023-04-18T15:11:01.277Z,19.48
2023-04-18T15:14:03.815Z,19.25
2023-04-18T15:17:06.506Z,19.00
2023-04-18T15:20:09.521Z,19.06
2023-04-18T15:23:13.812Z,19.23
2023-04-18T15:26:16.530Z,19.14
2023-04-18T15:29:19.164Z,19.04
2023-04-18T15:32:22.105Z,19.17
2023-04-18T15:35:24.891Z,18.97
2023-04-18T15:38:27.486Z,18.91
2023-04-18T15:41:30.888Z,18.91
2023-04-18T15:44:33.249Z,18.95
2023-04-18T15:47:36.219Z,18.92
2023-04-18T15:50:38.670Z,18.81
2023-04-18T15:53:41.281Z,18.64
2023-04-18T15:56:44.758Z,18.63
2023-04-18T15:59:47.437Z,18.63
2023-04-18T16:02:49.805Z,18.54
2023-04-18T16:05:52.465Z,18.54
2023-04-18T16:08:54.898Z,18.38
2023-04-18T16:11:57.781Z,18.35
2023-04-18T16:15:00.193Z,18.26
2023-04-18T16:18:02.906Z,18.07
2023-04-18T16:21:05.304Z,18.11
2023-04-18T16:24:08.030Z,18.05
2023-04-18T16:27:10.568Z,17.98
2023-04-18T16:30:13.458Z,17.99
2023-04-18T16:33:16.053Z,17.80
2023-04-18T16:36:18.699Z,17.83
2023-04-18T16:39:21.062Z,17.83
2023-04-18T16:42:23.770Z,17.84
2023-04-18T16:45:26.322Z,17.83
2023-04-18T16:48:29.332Z,17.82
2023-04-18T16:51:31.978Z,17.78
2023-04-18T16:54:35.034Z,17.74
2023-04-18T16:57:37.696Z,17.68
2023-04-18T17:00:40.538Z,17.62
2023-04-18T17:03:43.274Z,17.55
2023-04-18T17:06:46.760Z,17.52
2023-04-18T17:09:49.344Z,17.48
2023-04-18T17:12:53.112Z,17.42
2023-04-18T17:15:59.125Z,17.38
2023-04-18T17:19:01.987Z,17.30
2023-04-18T17:22:04.534Z,17.28
2023-04-18T17:25:08.158Z,17.24
2023-04-18T17:28:11.989Z,17.21
2023-04-18T17:31:15.741Z,17.19
2023-04-18T17:34:18.383Z,17.14
2023-04-18T17:37:22.427Z,17.10
2023-04-18T17:40:25.256Z,17.07
2023-04-18T17:43:28.256Z,16.91
2023-04-18T17:46:32.275Z,16.96
2023-04-18T17:49:36.073Z,16.91
2023-04-18T17:52:39.692Z,16.88
2023-04-18T17:55:42.760Z,16.85
2023-04-18T17:58:46.254Z,16.82
2023-04-18T18:01:49.925Z,16.77
2023-04-18T18:04:53.153Z,16.77
2023-04-18T18:07:57.807Z,16.71
2023-04-18T18:11:03.038Z,16.64
2023-04-18T18:14:06.575Z,16.49
2023-04-18T18:17:09.701Z,16.57
2023-04-18T18:20:12.500Z,16.54
2023-04-18T18:23:17.041Z,16.53
2023-04-18T18:26:23.055Z,16.54
2023-04-18T18:29:29.319Z,16.56
2023-04-18T18:32:32.807Z,16.51
2023-04-18T18:35:36.871Z,16.44
2023-04-18T18:38:39.406Z,16.40
2023-04-18T18:41:43.056Z,16.33
2023-04-18T18:44:49.350Z,16.29
2023-04-18T18:47:52.820Z,16.24
2023-04-18T18:50:57.124Z,16.16
2023-04-18T18:54:00.726Z,16.12
2023-04-18T18:57:12.710Z,16.08
2023-04-18T19:00:16.497Z,16.03
2023-04-18T19:03:23.533Z,16.00
2023-04-18T19:06:29.433Z,15.94
2023-04-18T19:09:36.836Z,15.85
2023-04-18T19:12:40.757Z,16.00
2023-04-18T19:15:43.965Z,16.03
2023-04-18T19:18:49.212Z,15.97
2023-04-18T19:21:54.196Z,16.07
2023-04-18T19:24:57.440Z,16.03
2023-04-18T19:28:00.317Z,15.99
2023-04-18T19:31:03.793Z,15.95
2023-04-18T19:34:09.191Z,15.89
2023-04-18T19:37:12.242Z,15.89
2023-04-18T19:40:15.205Z,15.92
2023-04-18T19:43:18.451Z,15.88
2023-04-18T19:46:21.665Z,15.85
2023-04-18T19:49:24.857Z,15.88
2023-04-18T19:52:27.421Z,15.88
2023-04-18T19:55:31.029Z,15.85
2023-04-18T19:58:45.383Z,15.85
2023-04-18T20:01:51.403Z,15.72
2023-04-18T20:04:54.692Z,15.79
2023-04-18T20:07:57.758Z,15.74
2023-04-18T20:11:00.649Z,15.69
2023-04-18T20:14:03.656Z,15.67
2023-04-18T20:17:07.006Z,15.64
2023-04-18T20:20:11.463Z,15.58
2023-04-18T20:23:17.336Z,15.56
2023-04-18T20:26:19.920Z,15.40
2023-04-18T20:29:23.031Z,15.38
2023-04-18T20:32:26.686Z,15.42
2023-04-18T20:35:30.324Z,15.45
2023-04-18T20:38:34.332Z,15.44
2023-04-18T20:41:37.783Z,15.35
2023-04-18T20:44:43.254Z,15.35
2023-04-18T20:47:46.464Z,15.41
2023-04-18T20:50:51.533Z,15.42
2023-04-18T20:53:54.934Z,15.39
2023-04-18T20:56:57.836Z,15.30
2023-04-18T21:00:01.077Z,15.24
2023-04-18T21:03:04.134Z,15.17
2023-04-18T21:06:10.340Z,15.11
2023-04-18T21:09:13.158Z,15.06
2023-04-18T21:12:16.759Z,15.12
2023-04-18T21:15:19.751Z,15.10
2023-04-18T21:18:23.103Z,15.08
2023-04-18T21:21:25.636Z,14.93
2023-04-18T21:24:28.268Z,14.93
2023-04-18T21:27:30.634Z,14.89
2023-04-18T21:30:33.494Z,14.91
2023-04-18T21:33:35.847Z,14.96
2023-04-18T21:36:40.190Z,14.85
2023-04-18T21:39:42.588Z,14.80
2023-04-18T21:42:46.179Z,14.76
2023-04-18T21:45:49.208Z,14.65
2023-04-18T21:48:51.824Z,14.61
2023-04-18T21:51:55.022Z,14.68
2023-04-18T21:54:59.187Z,14.71
2023-04-18T21:58:01.713Z,14.68
2023-04-18T22:01:04.443Z,14.68
2023-04-18T22:04:07.309Z,14.66
2023-04-18T22:07:11.396Z,14.52
2023-04-18T22:10:14.166Z,14.54
2023-04-18T22:13:19.015Z,14.53
2023-04-18T22:16:24.778Z,14.40
2023-04-18T22:19:29.481Z,14.53
2023-04-18T22:22:32.210Z,14.38
2023-04-18T22:25:34.938Z,14.47
2023-04-18T22:28:37.683Z,14.47
2023-04-18T22:31:40.125Z,14.38
2023-04-18T22:34:42.837Z,14.49
2023-04-18T22:37:45.348Z,14.41
2023-04-18T22:40:48.020Z,14.42
2023-04-18T22:43:50.479Z,14.52
2023-04-18T22:46:54.730Z,14.50
2023-04-18T22:49:57.027Z,14.51
2023-04-18T22:52:59.618Z,14.49
2023-04-18T22:56:01.979Z,14.49
2023-04-18T22:59:04.586Z,14.43
2023-04-18T23:02:07.039Z,14.37
2023-04-18T23:05:10.860Z,14.42
2023-04-18T23:08:13.208Z,14.34
2023-04-18T23:11:15.881Z,14.41
2023-04-18T23:14:18.394Z,14.43
2023-04-18T23:17:21.172Z,14.34
2023-04-18T23:20:24.076Z,14.44
2023-04-18T23:23:26.866Z,14.34
2023-04-18T23:26:29.209Z,14.44
2023-04-18T23:29:31.833Z,14.44
2023-04-18T23:32:34.214Z,14.47
2023-04-18T23:35:36.959Z,14.47
2023-04-18T23:38:40.790Z,14.49
2023-04-18T23:41:43.346Z,14.44
2023-04-18T23:44:45.667Z,14.34
2023-04-18T23:47:48.391Z,14.38
2023-04-18T23:50:52.540Z,14.32
2023-04-18T23:53:55.550Z,14.33
2023-04-18T23:56:58.238Z,14.39
